Terminal Aerodrome Forecast
Issued by NWS

Home | Current Version | Previous Version | Text Only | Print | Product List | Glossary On
Versions: 1 2 3 4 5 6 7 8 9 10 11 12 13 14 15 16 17 18 19 20
000
FTUS43 KILX 281722
TAFBMI
TAF
KBMI 281722Z 2818/2918 35013G21KT P6SM SCT025 BKN035
      TEMPO 2818/2820 BKN025
     FM290000 34009KT P6SM BKN070
     FM291200 36011KT P6SM BKN015=

USA.gov is the U.S. government's official web portal to all federal, state and local government web resources and services.